Time;durP1;ratioP1;P1;durP2;ratioP2;P2;SDS_P1;SDS_P2;PMS_P1;PMS_P2;Temp;Humidity;BMP_temperature;BMP_pressure;BME280_temperature;BME280_humidity;BME280_pressure;Samples;Min_cycle;Max_cycle;Signal;HPM_P1;HPM_P2
2022/03/28 00:00:05;;;;;;;;;46.00;34.75;;;;;12.71;44.22;101655.84;5035361;28;45516;-65
2022/03/28 00:02:31;;;;;;;;;49.25;38.50;;;;;12.65;44.16;101648.97;5035838;28;46313;-69
2022/03/28 00:04:56;;;;;;;;;39.75;33.50;;;;;12.63;44.10;101650.78;5035404;28;45411;-69
2022/03/28 00:07:22;;;;;;;;;49.25;35.50;;;;;12.60;44.49;101642.97;5035717;28;45895;-73
2022/03/28 00:09:47;;;;;;;;;48.25;38.50;;;;;12.55;44.91;101640.50;5035666;28;45653;-64
2022/03/28 00:12:12;;;;;;;;;44.00;37.50;;;;;12.52;44.51;101627.41;5035149;28;48758;-66
2022/03/28 00:14:38;;;;;;;;;40.75;33.75;;;;;12.51;45.34;101641.50;5035629;28;45382;-68
2022/03/28 00:17:03;;;;;;;;;47.25;36.25;;;;;12.48;44.96;101635.44;5035471;28;45273;-68
2022/03/28 00:19:28;;;;;;;;;40.50;33.25;;;;;12.40;45.36;101627.78;5035672;28;45610;-67
2022/03/28 00:21:56;;;;;;;;;46.00;35.25;;;;;12.41;45.33;101629.50;5033872;28;47161;-65
2022/03/28 00:24:22;;;;;;;;;43.75;35.25;;;;;12.37;45.87;101634.00;5035118;28;45510;-69
2022/03/28 00:26:47;;;;;;;;;43.50;35.75;;;;;12.33;46.14;101628.88;5035259;28;45254;-67
2022/03/28 00:29:13;;;;;;;;;43.75;36.25;;;;;12.30;46.50;101629.81;5035672;28;45258;-70
2022/03/28 00:31:38;;;;;;;;;39.25;32.50;;;;;12.27;46.13;101632.56;5017407;28;48980;-69
2022/03/28 00:34:03;;;;;;;;;38.75;33.25;;;;;12.24;46.63;101628.25;5035358;28;45367;-67
2022/03/28 00:36:29;;;;;;;;;40.50;33.00;;;;;12.23;46.94;101628.28;5035743;28;45872;-73
2022/03/28 00:38:54;;;;;;;;;37.50;33.00;;;;;12.18;46.51;101627.56;5035453;28;45610;-68
2022/03/28 00:41:19;;;;;;;;;41.50;35.50;;;;;12.16;46.47;101618.84;5034902;28;46025;-69
2022/03/28 00:43:56;;;;;;;;;38.00;32.75;;;;;12.12;47.21;101615.41;5034865;28;45427;-65
2022/03/28 00:46:22;;;;;;;;;34.50;30.50;;;;;12.10;46.99;101620.75;5035232;28;45377;-68
2022/03/28 00:48:48;;;;;;;;;38.00;31.75;;;;;12.04;47.59;101610.38;5035256;28;45388;-64
2022/03/28 00:51:15;;;;;;;;;45.50;35.75;;;;;12.02;47.37;101609.56;5034785;28;46397;-63
2022/03/28 00:53:41;;;;;;;;;43.50;34.25;;;;;11.99;47.58;101604.34;5035414;28;45384;-67
2022/03/28 00:56:07;;;;;;;;;41.25;33.25;;;;;11.95;48.15;101608.00;5036194;28;45798;-71
2022/03/28 00:58:33;;;;;;;;;32.00;27.50;;;;;11.93;48.09;101608.03;5035418;28;45546;-71
2022/03/28 01:00:59;;;;;;;;;39.00;35.00;;;;;11.91;48.51;101603.72;5034946;28;45444;-71
2022/03/28 01:03:24;;;;;;;;;36.50;31.75;;;;;11.88;48.67;101611.72;5033424;28;45426;-70
2022/03/28 01:05:49;;;;;;;;;37.50;32.75;;;;;11.85;48.55;101610.03;5033403;28;45390;-63
2022/03/28 01:08:15;;;;;;;;;42.25;35.00;;;;;11.80;49.09;101604.91;5034937;28;45364;-65
2022/03/28 01:10:42;;;;;;;;;41.25;34.50;;;;;11.80;49.33;101604.00;5035125;28;45574;-67
2022/03/28 01:13:09;;;;;;;;;35.00;32.75;;;;;11.76;49.60;101598.00;5038487;28;45349;-70
2022/03/28 01:15:34;;;;;;;;;39.25;31.75;;;;;11.71;49.42;101594.63;5038838;28;45197;-70
2022/03/28 01:18:05;;;;;;;;;38.75;34.00;;;;;11.68;49.83;101592.91;5036928;28;45470;-72
2022/03/28 01:20:34;;;;;;;;;37.00;32.50;;;;;11.68;50.45;101599.97;5037965;28;46697;-69
2022/03/28 01:22:59;;;;;;;;;42.25;35.75;;;;;11.66;50.25;101593.84;5038143;28;45329;-72
2022/03/28 01:25:26;;;;;;;;;40.75;35.00;;;;;11.64;50.00;101590.41;5038008;28;45392;-65
2022/03/28 01:27:58;;;;;;;;;47.00;35.50;;;;;11.62;51.41;101584.31;5038154;28;45254;-63
2022/03/28 01:30:26;;;;;;;;;44.00;34.25;;;;;11.59;51.03;101589.66;5037907;28;46241;-69
2022/03/28 01:32:52;;;;;;;;;43.50;36.00;;;;;11.56;50.85;101580.09;5038004;28;45343;-69
2022/03/28 01:35:36;;;;;;;;;43.75;36.00;;;;;11.54;51.63;101581.91;5037915;28;45174;-66
2022/03/28 01:38:04;;;;;;;;;38.00;32.25;;;;;11.51;51.47;101576.72;5038004;28;45332;-71
2022/03/28 01:40:30;;;;;;;;;44.25;37.25;;;;;11.47;51.66;101575.94;5036731;28;48088;-71
2022/03/28 01:42:56;;;;;;;;;42.50;36.25;;;;;11.46;53.05;101576.00;5037128;28;45493;-70
2022/03/28 01:45:22;;;;;;;;;42.50;36.75;;;;;11.43;53.86;101579.56;5020400;28;45472;-67
2022/03/28 01:47:47;;;;;;;;;47.75;35.50;;;;;11.41;53.93;101576.09;5037805;28;45518;-63
2022/03/28 01:50:14;;;;;;;;;46.75;38.50;;;;;11.40;54.75;101574.38;5037807;28;46128;-69
2022/03/28 01:52:40;;;;;;;;;48.75;38.75;;;;;11.39;54.77;101576.16;5037839;28;45391;-63
2022/03/28 01:55:07;;;;;;;;;46.00;37.00;;;;;11.36;54.34;101573.63;5037490;28;45256;-67
2022/03/28 01:57:32;;;;;;;;;48.25;37.75;;;;;11.34;54.35;101567.53;5038034;28;45674;-68
2022/03/28 01:59:58;;;;;;;;;50.75;41.25;;;;;11.33;55.60;101567.56;5035599;28;45375;-67
2022/03/28 02:02:23;;;;;;;;;48.75;41.00;;;;;11.30;56.06;101565.88;5037395;28;45502;-69
2022/03/28 02:04:48;;;;;;;;;54.25;41.00;;;;;11.29;56.01;101561.53;5020110;28;45406;-69
2022/03/28 02:07:16;;;;;;;;;49.50;35.00;;;;;11.25;56.06;101560.72;5038360;28;45389;-68
2022/03/28 02:09:41;;;;;;;;;40.50;35.75;;;;;11.22;56.95;101554.69;5038344;28;47121;-65
2022/03/28 02:12:07;;;;;;;;;54.00;43.25;;;;;11.22;57.25;101559.97;5037290;28;45444;-63
2022/03/28 02:14:32;;;;;;;;;52.25;41.75;;;;;11.22;57.42;101557.34;5037455;28;45356;-63
2022/03/28 02:16:58;;;;;;;;;50.00;37.25;;;;;11.20;58.17;101560.00;5037392;28;45297;-63
2022/03/28 02:19:23;;;;;;;;;53.50;39.25;;;;;11.18;58.00;101564.44;5019265;28;46230;-67
2022/03/28 02:21:48;;;;;;;;;55.75;44.50;;;;;11.16;57.94;101555.72;5036917;28;45402;-69
2022/03/28 02:24:14;;;;;;;;;53.50;43.25;;;;;11.17;58.50;101560.06;5036704;28;45713;-68
2022/03/28 02:26:39;;;;;;;;;57.00;41.25;;;;;11.14;59.19;101560.16;5037283;28;45345;-67
2022/03/28 02:29:05;;;;;;;;;61.25;44.00;;;;;11.11;59.96;101554.97;5037365;28;46132;-74
2022/03/28 02:31:30;;;;;;;;;55.25;44.50;;;;;11.11;59.87;101554.97;5036833;28;45428;-69
2022/03/28 02:33:55;;;;;;;;;57.50;46.25;;;;;11.10;59.54;101550.63;5036958;28;45324;-69
2022/03/28 02:36:21;;;;;;;;;58.00;45.75;;;;;11.08;60.56;101553.28;5036984;28;45614;-70
2022/03/28 02:38:46;;;;;;;;;56.50;44.00;;;;;11.08;60.93;101555.91;5036958;28;46114;-67
2022/03/28 02:41:11;;;;;;;;;57.50;45.50;;;;;11.06;61.53;101547.19;5037028;28;45385;-69
2022/03/28 02:43:37;;;;;;;;;54.25;42.50;;;;;11.04;61.29;101548.16;5036927;28;45274;-69
2022/03/28 02:46:02;;;;;;;;;54.75;42.75;;;;;11.03;61.22;101546.41;5036935;28;45292;-69
2022/03/28 02:48:27;;;;;;;;;59.75;47.00;;;;;11.03;61.29;101541.16;5036662;28;46201;-71
2022/03/28 02:50:53;;;;;;;;;43.75;38.75;;;;;11.03;61.46;101546.41;5018650;28;45355;-71
2022/03/28 02:53:18;;;;;;;;;58.75;46.50;;;;;11.01;62.32;101529.81;5036654;28;45233;-72
2022/03/28 02:55:44;;;;;;;;;58.75;46.25;;;;;11.00;62.11;101533.34;5036785;28;45210;-73
2022/03/28 02:58:09;;;;;;;;;58.50;48.25;;;;;11.02;62.65;101528.91;5036479;28;45821;-67
2022/03/28 03:00:35;;;;;;;;;60.50;46.75;;;;;10.99;63.03;101526.34;5034887;28;45483;-68
2022/03/28 03:03:00;;;;;;;;;60.00;46.25;;;;;10.98;63.15;101519.34;5035089;28;45482;-69
2022/03/28 03:05:26;;;;;;;;;56.75;47.50;;;;;10.98;62.53;101516.72;5036958;28;45376;-72
2022/03/28 03:07:52;;;;;;;;;67.00;50.50;;;;;10.96;63.39;101514.13;5036384;28;45344;-71
2022/03/28 03:10:17;;;;;;;;;54.75;42.75;;;;;10.94;63.48;101514.16;5036591;28;45389;-69
2022/03/28 03:12:42;;;;;;;;;57.75;45.50;;;;;10.95;63.14;101515.03;5036656;28;45860;-69
2022/03/28 03:15:08;;;;;;;;;62.50;46.75;;;;;10.92;63.77;101517.72;5036474;28;45978;-67
2022/03/28 03:17:35;;;;;;;;;60.50;47.50;;;;;10.89;63.78;101505.53;5036282;28;45486;-63
2022/03/28 03:20:00;;;;;;;;;59.00;47.25;;;;;10.87;64.36;101506.47;5036226;28;45403;-68
2022/03/28 03:22:26;;;;;;;;;60.00;48.50;;;;;10.86;64.53;101499.47;5036249;28;45270;-69
2022/03/28 03:24:51;;;;;;;;;61.00;47.75;;;;;10.83;64.95;101505.69;5035257;28;45394;-67
2022/03/28 03:27:17;;;;;;;;;57.00;46.00;;;;;10.81;64.67;101497.81;5036289;28;45355;-64
2022/03/28 03:29:42;;;;;;;;;60.50;47.50;;;;;10.78;65.26;101502.31;5035846;28;45317;-66
2022/03/28 03:32:08;;;;;;;;;59.00;46.50;;;;;10.75;65.05;101498.00;5035717;28;50835;-67
2022/03/28 03:34:34;;;;;;;;;63.00;48.50;;;;;10.76;64.60;101498.88;5035949;28;45499;-65
2022/03/28 03:37:00;;;;;;;;;64.25;48.25;;;;;10.74;64.54;101503.31;5035712;28;46303;-66
2022/03/28 03:39:26;;;;;;;;;51.50;43.25;;;;;10.71;64.97;101490.22;5035785;28;45352;-67
2022/03/28 03:41:52;;;;;;;;;65.00;49.75;;;;;10.68;65.15;101495.56;5036165;28;45304;-66
2022/03/28 03:44:19;;;;;;;;;59.00;47.25;;;;;10.66;65.77;101493.84;5036261;28;45367;-71
2022/03/28 03:46:44;;;;;;;;;64.25;49.75;;;;;10.64;65.89;101498.28;5035766;28;45309;-69
2022/03/28 03:49:10;;;;;;;;;62.00;49.50;;;;;10.62;66.17;101500.09;5035869;28;45842;-71
2022/03/28 03:51:36;;;;;;;;;61.50;48.75;;;;;10.61;66.73;101490.47;5035927;28;45628;-66
2022/03/28 03:54:02;;;;;;;;;66.75;51.75;;;;;10.58;66.58;101501.03;5035723;28;45369;-69
2022/03/28 03:56:28;;;;;;;;;67.50;49.50;;;;;10.58;66.51;101500.19;5035419;28;46731;-65
2022/03/28 03:58:54;;;;;;;;;62.50;48.75;;;;;10.56;66.84;101499.38;5035393;28;45543;-64
2022/03/28 04:01:20;;;;;;;;;61.25;48.75;;;;;10.55;67.65;101501.13;5036153;28;45506;-66
2022/03/28 04:03:46;;;;;;;;;66.75;50.25;;;;;10.54;67.11;101507.28;5018566;28;45593;-67
2022/03/28 04:06:12;;;;;;;;;61.75;49.50;;;;;10.50;68.24;101503.00;5035367;28;45902;-72
2022/03/28 04:08:43;;;;;;;;;67.50;53.75;;;;;10.49;68.04;101499.53;5035133;28;45451;-69
2022/03/28 04:11:08;;;;;;;;;58.25;46.25;;;;;10.46;69.25;101498.72;5035448;28;45359;-66
2022/03/28 04:13:34;;;;;;;;;64.25;49.25;;;;;10.42;68.81;101490.06;5035306;28;45399;-69
2022/03/28 04:16:00;;;;;;;;;64.75;51.25;;;;;10.41;69.10;101496.22;5035118;28;46620;-68
2022/03/28 04:18:27;;;;;;;;;65.50;49.75;;;;;10.37;70.36;101491.91;5035131;28;45475;-70
2022/03/28 04:20:53;;;;;;;;;68.50;52.50;;;;;10.36;70.66;101501.56;5035535;28;45415;-65
2022/03/28 04:23:19;;;;;;;;;66.00;51.50;;;;;10.32;71.33;101496.41;5035847;28;45333;-67
2022/03/28 04:25:45;;;;;;;;;63.25;48.50;;;;;10.29;71.43;101501.75;5035007;28;46366;-64
2022/03/28 04:28:10;;;;;;;;;65.50;50.50;;;;;10.28;71.00;101498.25;5017186;28;45261;-67
2022/03/28 04:30:36;;;;;;;;;64.50;50.00;;;;;10.25;71.17;101498.31;5035353;28;45249;-72
2022/03/28 04:33:03;;;;;;;;;61.25;47.75;;;;;10.24;70.82;101496.59;5035342;28;45236;-64
2022/03/28 04:35:28;;;;;;;;;65.75;54.00;;;;;10.22;70.71;101498.41;5034920;28;46519;-65
2022/03/28 04:37:54;;;;;;;;;67.25;49.50;;;;;10.22;70.18;101501.91;5035031;28;45391;-72
2022/03/28 04:40:20;;;;;;;;;60.25;45.25;;;;;10.24;69.78;101509.75;5035479;28;45332;-70
2022/03/28 04:42:46;;;;;;;;;65.50;50.00;;;;;10.22;69.63;101511.53;5035047;28;45304;-66
2022/03/28 04:45:12;;;;;;;;;63.25;49.75;;;;;10.23;69.38;101502.75;5034581;28;46272;-63
2022/03/28 04:47:39;;;;;;;;;60.25;49.00;;;;;10.20;69.60;101498.44;5037984;28;45367;-67
2022/03/28 04:50:05;;;;;;;;;66.50;51.50;;;;;10.12;70.96;101483.75;5038577;28;45353;-69
2022/03/28 04:52:31;;;;;;;;;63.25;49.50;;;;;10.16;70.84;101490.66;5039115;28;45490;-66
2022/03/28 04:54:56;;;;;;;;;65.50;50.00;;;;;10.15;71.00;101488.94;5038155;28;45274;-68
2022/03/28 04:57:22;;;;;;;;;65.75;51.00;;;;;10.12;71.21;101482.00;5038771;28;45265;-65
2022/03/28 04:59:48;;;;;;;;;67.75;53.50;;;;;10.14;71.58;101495.09;5038377;28;45178;-62
2022/03/28 05:02:14;;;;;;;;;67.50;53.50;;;;;10.13;71.41;101490.72;5038520;28;45661;-62
2022/03/28 05:04:40;;;;;;;;;61.50;49.50;;;;;10.12;71.67;101491.63;5038107;28;46940;-65
2022/03/28 05:07:06;;;;;;;;;57.75;46.00;;;;;10.11;72.13;101482.03;5038451;28;45517;-68
2022/03/28 05:09:31;;;;;;;;;63.75;49.75;;;;;10.11;72.56;101489.91;5038314;28;45465;-64
2022/03/28 05:11:57;;;;;;;;;64.00;48.50;;;;;10.10;72.42;101489.06;5039266;28;45386;-67
2022/03/28 05:14:23;;;;;;;;;66.25;50.00;;;;;9.97;71.96;101466.56;5040058;28;46325;-66
2022/03/28 05:16:49;;;;;;;;;63.00;49.50;;;;;10.07;72.08;101475.94;5038967;28;45493;-71
2022/03/28 05:19:14;;;;;;;;;65.00;49.75;;;;;10.06;72.17;101483.00;5038248;28;45257;-70
2022/03/28 05:21:40;;;;;;;;;63.50;49.00;;;;;10.07;72.19;101479.47;5038216;28;45630;-67
2022/03/28 05:24:05;;;;;;;;;65.25;49.50;;;;;10.07;72.38;101481.22;5037553;28;45355;-66
2022/03/28 05:26:31;;;;;;;;;64.50;50.25;;;;;10.08;71.72;101480.34;5037493;28;45395;-63
2022/03/28 05:28:56;;;;;;;;;66.50;48.75;;;;;10.06;71.29;101476.84;5039260;28;45386;-68
2022/03/28 05:31:22;;;;;;;;;59.00;48.00;;;;;10.06;71.26;101477.72;5038174;28;45188;-66
2022/03/28 05:33:47;;;;;;;;;65.00;49.00;;;;;10.06;71.52;101480.38;5037658;28;46193;-67
2022/03/28 05:36:14;;;;;;;;;69.75;54.50;;;;;10.06;72.15;101480.38;5037854;28;45305;-64
2022/03/28 05:38:42;;;;;;;;;65.00;51.00;;;;;10.04;71.97;101479.53;5038636;28;45438;-66
2022/03/28 05:41:08;;;;;;;;;71.50;54.75;;;;;10.04;71.72;101486.53;5039651;28;45332;-67
2022/03/28 05:43:36;;;;;;;;;67.25;51.50;;;;;10.01;72.21;101482.22;5039495;28;45419;-63
2022/03/28 05:46:03;;;;;;;;;69.25;50.75;;;;;10.03;71.86;101487.44;5039328;28;45225;-67
2022/03/28 05:48:29;;;;;;;;;63.75;49.50;;;;;10.03;71.84;101480.44;5037753;28;45429;-67
2022/03/28 05:50:55;;;;;;;;;63.50;50.25;;;;;10.03;72.61;101477.81;5036939;28;45424;-66
2022/03/28 05:53:21;;;;;;;;;66.50;52.75;;;;;9.99;72.49;101470.00;5037448;28;45513;-69
2022/03/28 05:55:46;;;;;;;;;69.67;56.00;;;;;10.06;72.40;101483.00;5036369;28;45498;-71
2022/03/28 05:58:12;;;;;;;;;70.75;52.00;;;;;10.09;73.36;101479.44;5036255;28;45900;-68
2022/03/28 06:00:38;;;;;;;;;71.25;56.00;;;;;10.10;73.05;101478.53;5037451;28;45467;-73
2022/03/28 06:03:04;;;;;;;;;66.25;52.25;;;;;10.14;72.57;101477.56;5036931;28;46166;-70
2022/03/28 06:05:31;;;;;;;;;69.25;51.75;;;;;10.20;71.77;101476.53;5037114;28;45241;-66
2022/03/28 06:07:56;;;;;;;;;65.50;49.00;;;;;10.27;71.72;101472.00;5038196;28;45319;-67
2022/03/28 06:10:22;;;;;;;;;73.75;55.50;;;;;10.33;71.82;101475.31;5037677;28;45135;-66
2022/03/28 06:12:47;;;;;;;;;72.00;52.75;;;;;10.28;71.54;101458.81;5037237;28;45998;-67
2022/03/28 06:15:12;;;;;;;;;70.50;55.25;;;;;10.45;71.16;101475.94;5036875;28;45267;-69
2022/03/28 06:17:38;;;;;;;;;66.00;52.00;;;;;10.51;70.90;101476.69;5037050;28;45237;-64
2022/03/28 06:20:04;;;;;;;;;66.50;51.75;;;;;10.56;71.06;101473.91;5037202;28;45552;-67
2022/03/28 06:22:30;;;;;;;;;74.67;62.33;;;;;10.62;70.33;101471.16;5036471;28;47059;-65
2022/03/28 06:24:56;;;;;;;;;67.50;51.00;;;;;10.70;70.21;101470.09;5037118;28;45460;-69
2022/03/28 06:27:24;;;;;;;;;63.50;49.50;;;;;10.77;70.21;101474.28;5035844;28;45344;-66
2022/03/28 06:29:51;;;;;;;;;69.25;54.25;;;;;10.82;70.33;101461.84;5037337;28;45487;-65
2022/03/28 06:32:16;;;;;;;;;67.25;52.25;;;;;10.88;70.04;101466.97;5036842;28;45522;-74
2022/03/28 06:34:41;;;;;;;;;71.00;54.50;;;;;10.92;69.71;101462.44;5036850;28;45348;-67
2022/03/28 06:37:07;;;;;;;;;68.00;52.25;;;;;10.98;69.23;101469.34;5036617;28;45725;-71
2022/03/28 06:39:34;;;;;;;;;74.00;54.00;;;;;11.00;69.54;101467.53;5018645;28;45468;-66
2022/03/28 06:42:00;;;;;;;;;65.00;51.75;;;;;11.04;69.22;101469.16;5036730;28;45421;-68
2022/03/28 06:44:25;;;;;;;;;66.00;51.50;;;;;11.07;69.01;101471.72;5036684;28;45451;-67
2022/03/28 06:46:51;;;;;;;;;72.25;54.50;;;;;11.12;69.24;101467.19;5036560;28;45282;-73
2022/03/28 06:49:16;;;;;;;;;69.75;51.50;;;;;11.14;68.92;101462.72;5036707;28;45607;-67
2022/03/28 06:51:42;;;;;;;;;66.75;51.00;;;;;11.17;68.70;101461.78;5036480;28;46120;-67
2022/03/28 06:54:08;;;;;;;;;70.25;52.00;;;;;11.16;68.35;101460.06;5035918;28;45588;-67
2022/03/28 06:56:35;;;;;;;;;66.25;53.25;;;;;11.14;68.77;101457.47;5036572;28;45409;-70
2022/03/28 06:59:00;;;;;;;;;60.50;49.50;;;;;11.15;68.58;101464.47;5036542;28;45496;-72
2022/03/28 07:01:26;;;;;;;;;54.25;45.00;;;;;11.16;68.41;101462.69;5037092;28;46116;-70
2022/03/28 07:03:52;;;;;;;;;65.25;52.75;;;;;11.18;68.88;101455.63;5036348;28;45420;-73
2022/03/28 07:06:17;;;;;;;;;72.50;56.00;;;;;11.19;68.67;101459.97;5035806;28;45350;-75
2022/03/28 07:08:42;;;;;;;;;70.00;54.50;;;;;11.23;68.22;101454.56;5039952;28;45226;-75
2022/03/28 07:11:08;;;;;;;;;70.00;53.25;;;;;11.25;68.20;101455.38;5038116;28;45994;-69
2022/03/28 07:13:33;;;;;;;;;69.25;54.00;;;;;11.27;68.58;101450.09;5035492;28;45427;-70
2022/03/28 07:15:59;;;;;;;;;67.25;52.25;;;;;11.30;68.04;101451.75;5037665;28;45328;-65
2022/03/28 07:18:24;;;;;;;;;73.25;54.00;;;;;11.36;68.13;101446.28;5036681;28;45649;-66
2022/03/28 07:20:50;;;;;;;;;69.25;51.25;;;;;11.42;67.85;101451.38;5036302;28;46068;-70
2022/03/28 07:23:17;;;;;;;;;67.75;51.00;;;;;11.50;68.06;101436.22;5036543;28;45385;-70
2022/03/28 07:25:43;;;;;;;;;69.00;53.75;;;;;11.63;67.29;101449.88;5036559;28;45361;-68
2022/03/28 07:28:12;;;;;;;;;65.75;51.25;;;;;11.74;67.04;101449.56;5036970;28;45968;-65
2022/03/28 07:30:39;;;;;;;;;69.25;53.00;;;;;11.82;66.73;101444.91;5036993;28;47039;-71
2022/03/28 07:33:06;;;;;;;;;68.50;51.50;;;;;11.89;66.27;101439.44;5037265;28;45544;-68
2022/03/28 07:35:35;;;;;;;;;67.75;52.50;;;;;11.91;66.39;101443.75;5036897;28;45563;-71
2022/03/28 07:38:01;;;;;;;;;67.50;52.25;;;;;11.94;65.76;101451.56;5036590;28;45673;-67
2022/03/28 07:40:27;;;;;;;;;67.50;51.25;;;;;11.97;65.70;101446.19;5036088;28;46500;-68
2022/03/28 07:42:53;;;;;;;;;69.00;52.75;;;;;12.04;65.63;101448.66;5034465;28;45315;-65
2022/03/28 07:45:19;;;;;;;;;63.75;50.25;;;;;12.10;65.53;101438.78;5035999;28;45394;-67
2022/03/28 07:47:45;;;;;;;;;66.25;51.25;;;;;12.13;65.45;101443.94;5037601;28;45402;-70
2022/03/28 07:50:11;;;;;;;;;62.50;49.75;;;;;12.16;65.11;101437.69;5037194;28;46322;-70
2022/03/28 07:52:38;;;;;;;;;65.00;50.25;;;;;12.21;64.93;101448.09;5036818;28;45518;-73
2022/03/28 07:55:05;;;;;;;;;64.50;49.75;;;;;12.22;64.60;101434.88;5036844;28;45371;-64
2022/03/28 07:57:31;;;;;;;;;67.50;50.50;;;;;12.28;64.59;101444.34;5036859;28;45249;-71
2022/03/28 07:59:56;;;;;;;;;67.75;54.00;;;;;12.30;64.50;101434.59;5036924;28;46453;-73
2022/03/28 08:02:24;;;;;;;;;67.00;51.75;;;;;12.33;64.36;101442.41;5037178;28;45417;-70
2022/03/28 08:04:49;;;;;;;;;65.50;49.75;;;;;12.37;64.19;101437.91;5036842;28;45540;-68
2022/03/28 08:07:14;;;;;;;;;67.50;52.50;;;;;12.41;64.33;101432.47;5037650;28;45439;-66
2022/03/28 08:09:41;;;;;;;;;72.25;54.75;;;;;12.53;64.25;101440.88;5036124;28;45478;-69
2022/03/28 08:12:08;;;;;;;;;72.25;55.50;;;;;12.65;63.85;101434.31;5035992;28;45407;-70
2022/03/28 08:14:33;;;;;;;;;77.67;57.00;;;;;12.73;63.81;101437.53;5035880;28;45336;-65
2022/03/28 08:16:59;;;;;;;;;62.50;48.75;;;;;12.83;62.96;101440.72;5036642;28;45237;-68
2022/03/28 08:19:25;;;;;;;;;68.75;51.50;;;;;12.85;62.90;101434.47;5036155;28;45292;-70
2022/03/28 08:21:50;;;;;;;;;66.75;53.25;;;;;12.91;62.65;101435.16;5034384;28;45249;-74
2022/03/28 08:24:16;;;;;;;;;71.25;54.00;;;;;12.96;62.47;101434.09;5038287;28;45328;-70
2022/03/28 08:26:42;;;;;;;;;59.75;47.75;;;;;13.02;62.48;101440.06;5039181;28;45575;-67
2022/03/28 08:29:09;;;;;;;;;67.50;52.25;;;;;13.08;62.11;101439.81;5036035;28;45434;-72
2022/03/28 08:31:34;;;;;;;;;67.25;52.50;;;;;13.16;62.32;101432.47;5035843;28;45442;-75
2022/03/28 08:34:00;;;;;;;;;68.00;54.00;;;;;13.28;61.71;101429.38;5036490;28;45489;-72
2022/03/28 08:36:25;;;;;;;;;69.00;51.25;;;;;13.39;61.33;101428.97;5034517;28;45577;-73
2022/03/28 08:38:51;;;;;;;;;72.00;53.75;;;;;13.49;61.13;101423.38;5035189;28;45416;-76
2022/03/28 08:41:18;;;;;;;;;70.75;52.50;;;;;13.60;60.79;101426.44;5035838;28;45364;-77
2022/03/28 08:43:45;;;;;;;;;63.50;50.25;;;;;13.71;60.33;101426.00;5037006;28;45454;-71
2022/03/28 08:46:11;;;;;;;;;62.75;49.00;;;;;13.82;59.71;101428.22;5037033;28;45235;-72
2022/03/28 08:48:40;;;;;;;;;68.75;52.25;;;;;13.92;59.75;101424.28;5035255;28;45387;-69
2022/03/28 08:51:08;;;;;;;;;62.75;50.50;;;;;14.07;59.63;101424.56;5035638;28;45327;-67
2022/03/28 08:53:34;;;;;;;;;66.50;51.50;;;;;14.19;59.05;101424.06;5036128;28;45394;-69
2022/03/28 08:56:00;;;;;;;;;64.50;50.50;;;;;14.29;59.04;101420.09;5035904;28;45340;-69
2022/03/28 08:58:26;;;;;;;;;67.25;52.75;;;;;14.38;58.56;101424.16;5017708;28;47131;-69
2022/03/28 09:00:51;;;;;;;;;66.00;50.00;;;;;14.48;58.13;101419.34;5035387;28;45245;-66
2022/03/28 09:03:16;;;;;;;;;66.00;50.25;;;;;14.58;58.32;101410.06;5035772;28;45261;-64
2022/03/28 09:05:47;;;;;;;;;64.75;51.00;;;;;14.71;57.90;101407.75;5035780;28;45497;-65
2022/03/28 09:08:13;;;;;;;;;79.00;63.67;;;;;14.85;57.71;101403.66;5035118;28;45619;-66
2022/03/28 09:10:45;;;;;;;;;67.25;51.50;;;;;14.97;57.17;101407.50;5035281;28;45350;-65
2022/03/28 09:13:12;;;;;;;;;71.25;53.50;;;;;15.06;56.34;101411.53;5035707;28;45429;-77
2022/03/28 09:15:41;;;;;;;;;64.50;49.75;;;;;15.07;56.17;101406.16;5035776;28;45602;-69
2022/03/28 09:18:08;;;;;;;;;71.25;52.25;;;;;15.21;55.50;101405.53;5036149;28;45882;-72
2022/03/28 09:20:35;;;;;;;;;67.25;51.25;;;;;15.29;55.45;101411.34;5037070;28;45254;-75
2022/03/28 09:23:40;;;;;;;;;63.25;49.25;;;;;15.34;54.68;101409.31;5038088;28;45359;-74
2022/03/28 09:26:16;;;;;;;;;57.50;46.50;;;;;15.42;53.97;101413.41;5036589;28;45833;-74
2022/03/28 09:28:46;;;;;;;;;63.00;49.50;;;;;15.50;54.47;101405.94;5034599;28;45507;-74
2022/03/28 09:31:32;;;;;;;;;60.25;47.75;;;;;15.65;54.25;101408.78;5034861;28;45465;-69
2022/03/28 09:34:16;;;;;;;;;65.75;50.50;;;;;15.80;53.71;101404.53;5039534;28;45279;-66
2022/03/28 09:36:56;;;;;;;;;61.50;49.25;;;;;15.90;53.64;101400.53;5038449;28;45259;-67
2022/03/28 09:39:23;;;;;;;;;68.25;53.00;;;;;16.09;53.51;101403.13;5039147;28;45353;-74
2022/03/28 09:41:59;;;;;;;;;60.00;47.75;;;;;16.26;52.62;101401.41;5040848;28;45448;-76
2022/03/28 09:44:39;;;;;;;;;61.00;46.75;;;;;16.38;51.90;101400.78;5038366;28;45451;-76
2022/03/28 09:47:10;;;;;;;;;58.50;44.75;;;;;16.46;51.78;101395.94;5039423;28;45546;-71
2022/03/28 09:49:37;;;;;;;;;63.50;47.00;;;;;16.58;51.17;101390.91;5036208;28;47325;-67
2022/03/28 09:52:14;;;;;;;;;57.00;46.00;;;;;16.71;50.71;101391.97;5041342;28;45305;-70
2022/03/28 09:54:51;;;;;;;;;56.00;44.50;;;;;16.86;50.88;101392.97;5043502;28;45570;-70
2022/03/28 09:57:24;;;;;;;;;54.25;42.25;;;;;17.02;49.79;101386.84;5037624;28;45513;-76
2022/03/28 09:59:51;;;;;;;;;65.00;50.50;;;;;17.10;49.70;101373.16;5039879;28;46385;-72
2022/03/28 10:02:25;;;;;;;;;55.50;45.00;;;;;17.28;49.01;101390.75;5021414;28;45440;-74
2022/03/28 10:04:53;;;;;;;;;63.50;48.25;;;;;17.42;48.73;101387.28;5038561;28;45320;-75
2022/03/28 10:07:20;;;;;;;;;56.25;46.00;;;;;17.56;48.68;101381.19;5039648;28;45453;-74
2022/03/28 10:09:46;;;;;;;;;54.75;44.00;;;;;17.67;47.73;101380.59;5037770;28;46741;-76
2022/03/28 10:12:13;;;;;;;;;52.50;42.25;;;;;17.73;47.28;101366.94;5039370;28;45341;-68
2022/03/28 10:14:38;;;;;;;;;57.50;46.25;;;;;17.78;46.92;101364.00;5038696;28;45302;-67
2022/03/28 10:17:06;;;;;;;;;60.25;46.00;;;;;17.85;46.75;101368.00;5038598;28;45229;-70
2022/03/28 10:19:33;;;;;;;;;58.75;45.50;;;;;17.91;45.64;101364.16;5038310;28;46133;-69
2022/03/28 10:22:03;;;;;;;;;55.00;44.00;;;;;17.89;45.78;101364.22;5036225;28;45393;-70
2022/03/28 10:24:33;;;;;;;;;56.75;44.50;;;;;17.91;45.96;101361.47;5037615;28;45366;-68
2022/03/28 10:27:00;;;;;;;;;53.75;45.00;;;;;17.98;45.64;101353.97;5038355;28;45391;-71
2022/03/28 10:29:46;;;;;;;;;49.75;40.75;;;;;18.08;45.23;101349.88;5038029;28;47389;-69
2022/03/28 10:32:16;;;;;;;;;54.50;43.75;;;;;18.20;45.30;101342.94;5037193;28;45300;-71
2022/03/28 10:34:41;;;;;;;;;51.75;41.50;;;;;18.36;45.05;101343.72;5038850;28;45405;-75
2022/03/28 10:37:25;;;;;;;;;55.00;43.50;;;;;18.53;44.57;101344.50;5038814;28;45234;-67
2022/03/28 10:39:52;;;;;;;;;52.50;42.75;;;;;18.67;43.94;101330.31;5037477;28;45303;-71
2022/03/28 10:42:24;;;;;;;;;50.00;40.00;;;;;18.84;43.46;101324.78;5037172;28;45372;-72
2022/03/28 10:45:11;;;;;;;;;53.50;43.00;;;;;18.97;41.43;101321.34;5037123;28;45356;-71
2022/03/28 10:47:48;;;;;;;;;46.00;38.00;;;;;19.03;40.98;101320.13;5038508;28;45459;-67
2022/03/28 10:50:19;;;;;;;;;48.50;39.00;;;;;19.15;41.21;101318.50;5038300;28;45982;-75
2022/03/28 10:53:08;;;;;;;;;44.75;37.50;;;;;19.30;40.93;101320.16;5036710;28;45474;-73
2022/03/28 10:55:43;;;;;;;;;48.00;37.50;;;;;19.47;41.44;101312.84;5037335;28;45498;-76
2022/03/28 10:58:12;;;;;;;;;53.75;43.50;;;;;19.66;40.07;101308.00;5040224;28;45533;-69
2022/03/28 11:00:37;;;;;;;;;44.75;36.25;;;;;19.78;39.36;101317.00;5037999;28;45322;-73
2022/03/28 11:03:03;;;;;;;;;42.00;34.00;;;;;19.87;38.58;101306.66;5035971;28;45398;-69
2022/03/28 11:05:31;;;;;;;;;46.00;36.50;;;;;19.91;38.18;101302.84;5037527;28;45326;-72
2022/03/28 11:08:03;;;;;;;;;43.25;34.75;;;;;19.99;38.30;101293.31;5038380;28;45397;-74